Time;durP1;ratioP1;P1;durP2;ratioP2;P2;SDS_P1;SDS_P2;PMS_P1;PMS_P2;Temp;Humidity;BMP_temperature;BMP_pressure;BME280_temperature;BME280_humidity;BME280_pressure;Samples;Min_cycle;Max_cycle;Signal;HPM_P1;HPM_P2
2023/03/12 00:00:25;;;;;;;6.70;3.47;;;22.20;62.70;;;;;;6087652;28;88352;-68
2023/03/12 00:03:28;;;;;;;6.47;3.40;;;22.20;62.70;;;;;;6086763;28;89414;-68
2023/03/12 00:06:30;;;;;;;7.03;3.42;;;22.20;62.70;;;;;;6086514;28;89421;-69
2023/03/12 00:09:36;;;;;;;6.82;3.30;;;22.20;62.70;;;;;;6086357;28;91196;-68
2023/03/12 00:12:38;;;;;;;5.22;2.85;;;22.20;62.70;;;;;;6086349;28;89933;-69
2023/03/12 00:15:40;;;;;;;5.72;3.20;;;22.20;62.70;;;;;;6082346;28;88321;-68
2023/03/12 00:18:44;;;;;;;4.75;3.00;;;22.20;62.70;;;;;;6078136;28;88153;-69
2023/03/12 00:21:46;;;;;;;5.30;2.85;;;22.20;62.80;;;;;;6086315;28;89105;-69
2023/03/12 00:24:51;;;;;;;5.63;3.20;;;22.20;62.70;;;;;;6087109;28;89424;-69
2023/03/12 00:27:53;;;;;;;5.97;3.08;;;22.10;62.70;;;;;;6075423;28;88069;-68
2023/03/12 00:30:57;;;;;;;5.93;3.15;;;22.20;62.80;;;;;;6086582;28;87395;-68
2023/03/12 00:34:01;;;;;;;5.28;3.10;;;22.10;62.70;;;;;;6084706;28;89223;-68
2023/03/12 00:37:03;;;;;;;5.07;2.97;;;22.10;62.80;;;;;;6086044;28;89213;-68
2023/03/12 00:40:09;;;;;;;4.30;3.00;;;22.10;62.70;;;;;;6085176;28;88956;-68
2023/03/12 00:43:11;;;;;;;5.00;2.75;;;22.10;62.70;;;;;;6086539;28;88788;-68
2023/03/12 00:46:14;;;;;;;6.40;2.88;;;22.10;62.70;;;;;;6085255;28;88364;-69
2023/03/12 00:49:17;;;;;;;4.63;2.67;;;22.10;62.70;;;;;;6085627;28;89206;-68
2023/03/12 00:52:19;;;;;;;3.95;2.58;;;22.10;62.70;;;;;;6075797;28;88310;-68
2023/03/12 00:55:21;;;;;;;4.32;2.40;;;22.10;62.70;;;;;;6086066;28;89105;-68
2023/03/12 00:58:24;;;;;;;4.55;2.70;;;22.10;62.80;;;;;;6085439;28;89361;-69
2023/03/12 01:01:26;;;;;;;5.13;2.70;;;22.10;62.80;;;;;;6090974;28;88738;-68
2023/03/12 01:04:30;;;;;;;3.45;2.40;;;22.10;62.80;;;;;;6089757;28;89370;-68
2023/03/12 01:07:32;;;;;;;3.83;2.50;;;22.10;62.80;;;;;;6097096;28;88228;-68
2023/03/12 01:10:34;;;;;;;4.20;2.35;;;22.10;62.80;;;;;;6084597;28;90210;-68
2023/03/12 01:13:36;;;;;;;4.07;2.60;;;22.10;62.80;;;;;;6085428;28;89036;-68
2023/03/12 01:16:38;;;;;;;3.83;2.38;;;22.00;62.70;;;;;;6086709;28;89059;-68
2023/03/12 01:19:41;;;;;;;4.07;2.30;;;22.10;62.80;;;;;;6094580;28;89200;-68
2023/03/12 01:22:44;;;;;;;3.22;2.10;;;22.00;62.80;;;;;;6086412;28;89416;-68
2023/03/12 01:25:46;;;;;;;3.45;2.42;;;22.00;62.70;;;;;;6085148;28;89251;-69
2023/03/12 01:28:49;;;;;;;3.40;2.28;;;22.00;62.70;;;;;;6085381;28;88998;-68
2023/03/12 01:31:51;;;;;;;3.38;2.33;;;22.00;62.80;;;;;;6085972;28;88668;-68
2023/03/12 01:34:55;;;;;;;3.80;2.50;;;22.00;62.80;;;;;;6084271;28;88975;-68
2023/03/12 01:37:57;;;;;;;4.25;2.38;;;22.00;62.80;;;;;;6084788;28;88003;-68
2023/03/12 01:40:59;;;;;;;3.10;1.92;;;22.00;62.80;;;;;;6085006;28;89962;-69
2023/03/12 01:44:02;;;;;;;2.78;2.10;;;22.00;62.90;;;;;;6085170;28;89144;-68
2023/03/12 01:47:04;;;;;;;3.22;1.90;;;22.00;62.80;;;;;;6084628;28;89211;-68
2023/03/12 01:50:09;;;;;;;2.72;2.10;;;22.00;62.80;;;;;;6077992;28;89058;-68
2023/03/12 01:53:11;;;;;;;2.08;1.88;;;22.00;62.80;;;;;;6081976;28;88065;-68
2023/03/12 01:56:15;;;;;;;2.42;2.00;;;22.00;62.80;;;;;;6082037;28;89087;-68
2023/03/12 01:59:22;;;;;;;2.92;2.03;;;22.00;62.80;;;;;;6077127;28;89102;-69
2023/03/12 02:02:28;;;;;;;2.92;2.20;;;22.00;62.80;;;;;;6073482;28;88636;-68
2023/03/12 02:05:37;;;;;;;2.90;2.08;;;22.00;62.80;;;;;;6084047;28;87996;-69
2023/03/12 02:08:42;;;;;;;2.35;2.03;;;22.00;62.80;;;;;;6084330;28;89077;-68
2023/03/12 02:11:44;;;;;;;2.70;1.83;;;22.00;62.80;;;;;;6075501;28;89992;-69
2023/03/12 02:14:47;;;;;;;3.22;1.80;;;22.00;62.80;;;;;;6069696;28;89126;-68
2023/03/12 02:17:49;;;;;;;2.80;2.08;;;21.90;62.80;;;;;;6084832;28;89216;-68
2023/03/12 02:21:00;;;;;;;2.65;1.92;;;21.90;62.80;;;;;;6082594;28;89560;-68
2023/03/12 02:24:11;;;;;;;2.92;1.73;;;21.90;62.80;;;;;;6078329;28;89273;-68
2023/03/12 02:27:17;;;;;;;2.83;1.90;;;21.90;62.80;;;;;;6085015;28;89136;-68
2023/03/12 02:30:21;;;;;;;2.80;1.90;;;21.90;62.80;;;;;;6072623;28;88024;-68
2023/03/12 02:33:23;;;;;;;2.53;1.85;;;21.90;62.80;;;;;;6087166;28;88504;-69
2023/03/12 02:36:25;;;;;;;2.80;1.90;;;21.90;62.70;;;;;;6088275;28;89139;-68
2023/03/12 02:39:27;;;;;;;2.65;1.65;;;21.90;62.80;;;;;;6076354;28;89065;-69
2023/03/12 02:42:31;;;;;;;3.72;2.08;;;21.90;62.80;;;;;;6088075;28;90288;-69
2023/03/12 02:45:35;;;;;;;3.78;2.20;;;21.90;62.80;;;;;;6089977;28;89051;-68
2023/03/12 02:48:37;;;;;;;2.40;1.70;;;21.90;62.80;;;;;;6095563;28;89053;-69
2023/03/12 02:51:39;;;;;;;2.75;1.73;;;21.90;62.90;;;;;;6084561;28;89078;-69
2023/03/12 02:54:42;;;;;;;3.15;2.03;;;21.90;62.90;;;;;;6088701;28;89091;-69
2023/03/12 02:57:46;;;;;;;2.30;1.65;;;21.90;62.90;;;;;;6087500;28;89243;-69
2023/03/12 03:00:48;;;;;;;2.15;1.60;;;21.90;62.90;;;;;;6087386;28;89080;-68
2023/03/12 03:03:50;;;;;;;1.95;1.50;;;21.90;62.90;;;;;;6086855;28;88315;-69
2023/03/12 03:06:52;;;;;;;2.28;1.67;;;21.90;62.90;;;;;;6088045;28;89344;-69
2023/03/12 03:09:54;;;;;;;3.00;1.90;;;21.90;62.80;;;;;;6087581;28;87919;-69
2023/03/12 03:12:57;;;;;;;2.30;1.70;;;21.80;62.80;;;;;;6085488;28;91475;-69
2023/03/12 03:16:00;;;;;;;2.90;1.85;;;21.90;62.80;;;;;;6085614;28;88346;-69
2023/03/12 03:19:02;;;;;;;2.65;1.60;;;21.90;62.90;;;;;;6088563;28;89041;-69
2023/03/12 03:22:05;;;;;;;1.60;1.50;;;21.90;62.80;;;;;;6087433;28;89404;-69
2023/03/12 03:25:08;;;;;;;2.35;1.52;;;21.80;63.70;;;;;;6085438;28;88193;-69
2023/03/12 03:28:11;;;;;;;2.00;1.60;;;21.80;62.80;;;;;;6086610;28;89139;-68
2023/03/12 03:31:13;;;;;;;2.17;1.70;;;21.80;62.80;;;;;;6082176;28;87896;-69
2023/03/12 03:34:15;;;;;;;2.80;1.67;;;21.90;63.00;;;;;;6087654;28;88362;-69
2023/03/12 03:37:17;;;;;;;2.47;1.65;;;21.80;62.90;;;;;;6078111;28;89097;-69
2023/03/12 03:40:20;;;;;;;3.05;1.58;;;21.80;63.00;;;;;;6088497;28;89131;-69
2023/03/12 03:43:23;;;;;;;2.25;1.50;;;21.80;62.90;;;;;;6085761;28;90048;-69
2023/03/12 03:46:26;;;;;;;2.30;1.60;;;21.80;62.80;;;;;;6078305;28;89135;-69
2023/03/12 03:49:28;;;;;;;2.00;1.65;;;21.80;62.90;;;;;;6082228;28;89436;-69
2023/03/12 03:52:31;;;;;;;2.40;1.75;;;21.80;62.80;;;;;;6092610;28;89153;-69
2023/03/12 03:55:36;;;;;;;2.50;1.63;;;21.80;62.90;;;;;;6090899;28;89421;-69
2023/03/12 03:58:40;;;;;;;3.40;1.73;;;21.80;62.80;;;;;;6086144;28;89152;-69
2023/03/12 04:01:42;;;;;;;2.15;1.58;;;21.80;62.90;;;;;;6087376;28;89052;-69
2023/03/12 04:04:44;;;;;;;1.73;1.48;;;21.80;62.90;;;;;;6080260;28;88731;-69
2023/03/12 04:07:46;;;;;;;3.35;1.67;;;21.80;63.00;;;;;;6086787;28;89403;-69
2023/03/12 04:10:48;;;;;;;2.05;1.67;;;21.80;63.00;;;;;;6087398;28;89090;-69
2023/03/12 04:13:52;;;;;;;2.35;1.63;;;21.80;63.00;;;;;;6097596;28;90003;-68
2023/03/12 04:16:54;;;;;;;1.92;1.60;;;21.80;63.00;;;;;;6086339;28;89475;-68
2023/03/12 04:19:56;;;;;;;2.28;1.70;;;21.80;63.00;;;;;;6094028;28;89119;-69
2023/03/12 04:23:00;;;;;;;2.00;1.40;;;21.70;63.00;;;;;;6086501;28;89046;-68
2023/03/12 04:26:02;;;;;;;1.92;1.50;;;21.70;63.00;;;;;;6087331;28;88683;-68
2023/03/12 04:29:05;;;;;;;2.00;1.42;;;21.80;63.00;;;;;;6099077;28;88795;-68
2023/03/12 04:32:08;;;;;;;2.45;1.67;;;21.70;63.00;;;;;;6085675;28;89485;-69
2023/03/12 04:35:10;;;;;;;1.92;1.63;;;21.70;63.10;;;;;;6085905;28;88371;-69
2023/03/12 04:38:12;;;;;;;1.85;1.60;;;21.70;63.00;;;;;;6079002;28;89650;-68
2023/03/12 04:41:16;;;;;;;1.50;1.30;;;21.70;62.70;;;;;;6085487;28;89168;-68
2023/03/12 04:44:19;;;;;;;1.88;1.45;;;21.70;62.60;;;;;;6085707;28;90016;-68
2023/03/12 04:47:21;;;;;;;3.22;1.48;;;21.70;62.50;;;;;;6084250;28;89060;-68
2023/03/12 04:50:24;;;;;;;2.67;2.10;;;21.70;62.50;;;;;;6086731;28;89097;-68
2023/03/12 04:53:26;;;;;;;2.30;1.80;;;21.70;62.50;;;;;;6085005;28;88038;-68
2023/03/12 04:56:28;;;;;;;2.45;1.95;;;21.70;62.50;;;;;;6086151;28;89190;-68
2023/03/12 04:59:31;;;;;;;2.92;2.10;;;21.70;62.50;;;;;;6084719;28;88184;-68
2023/03/12 05:02:33;;;;;;;2.60;2.10;;;21.80;62.50;;;;;;6083767;28;89141;-68
2023/03/12 05:05:35;;;;;;;3.28;2.40;;;21.70;62.50;;;;;;6080350;28;87556;-68
2023/03/12 05:08:37;;;;;;;2.78;2.38;;;21.70;62.50;;;;;;6088609;28;89676;-69
2023/03/12 05:11:39;;;;;;;4.22;2.65;;;21.80;62.50;;;;;;6092409;28;89103;-68
2023/03/12 05:14:43;;;;;;;3.75;2.65;;;21.80;62.40;;;;;;6083668;28;88950;-68
2023/03/12 05:17:45;;;;;;;3.30;2.70;;;21.80;62.40;;;;;;6074964;28;89131;-68
2023/03/12 05:20:47;;;;;;;3.85;2.95;;;21.80;62.40;;;;;;6092580;28;89187;-69
2023/03/12 05:23:49;;;;;;;4.05;3.20;;;21.80;62.40;;;;;;6085710;28;89157;-68
2023/03/12 05:26:51;;;;;;;4.40;2.90;;;21.80;62.40;;;;;;6086113;28;89162;-69
2023/03/12 05:29:55;;;;;;;3.08;2.78;;;21.80;62.30;;;;;;6086136;28;89254;-68
2023/03/12 05:32:57;;;;;;;3.35;2.97;;;21.80;62.30;;;;;;6085394;28;89099;-68
2023/03/12 05:35:59;;;;;;;3.58;3.08;;;21.90;62.50;;;;;;6084328;28;88384;-68
2023/03/12 05:39:01;;;;;;;4.25;3.25;;;21.80;62.30;;;;;;6082368;28;89060;-69
2023/03/12 05:42:03;;;;;;;4.53;3.78;;;21.90;62.30;;;;;;6092416;28;89425;-68
2023/03/12 05:45:08;;;;;;;4.80;3.47;;;21.90;62.30;;;;;;6083725;28;90312;-68
2023/03/12 05:48:10;;;;;;;4.95;3.58;;;21.90;62.30;;;;;;6085003;28;89109;-68
2023/03/12 05:51:12;;;;;;;3.90;3.50;;;21.90;62.30;;;;;;6079879;28;89063;-68
2023/03/12 05:54:15;;;;;;;4.15;3.60;;;21.90;62.30;;;;;;6084444;28;89066;-68
2023/03/12 05:57:17;;;;;;;4.72;3.45;;;21.90;62.30;;;;;;6099190;28;89086;-68
2023/03/12 06:00:21;;;;;;;4.80;3.80;;;21.90;62.30;;;;;;6091688;28;89084;-68
2023/03/12 06:03:23;;;;;;;4.63;3.90;;;21.90;62.30;;;;;;6072861;28;89164;-68
2023/03/12 06:06:26;;;;;;;4.15;3.70;;;21.90;62.30;;;;;;6085372;28;88636;-68
2023/03/12 06:09:28;;;;;;;4.00;3.60;;;21.90;62.30;;;;;;6084182;28;89260;-68
2023/03/12 06:12:30;;;;;;;4.70;4.10;;;21.90;62.30;;;;;;6096251;28;89426;-68
2023/03/12 06:15:33;;;;;;;4.50;3.80;;;22.00;62.30;;;;;;6077191;28;90155;-68
2023/03/12 06:18:36;;;;;;;4.82;3.90;;;21.90;62.30;;;;;;6073762;28;88048;-68
2023/03/12 06:21:38;;;;;;;4.65;4.18;;;22.00;62.30;;;;;;6079530;28;89511;-68
2023/03/12 06:24:41;;;;;;;4.30;3.90;;;22.00;62.30;;;;;;6096550;28;89495;-68
2023/03/12 06:27:43;;;;;;;4.32;3.92;;;22.00;62.30;;;;;;6084344;28;88275;-68
2023/03/12 06:30:46;;;;;;;4.13;3.60;;;22.00;62.20;;;;;;6083680;28;89047;-68
2023/03/12 06:33:49;;;;;;;4.57;4.07;;;22.00;62.30;;;;;;6085840;28;89064;-69
2023/03/12 06:36:51;;;;;;;4.32;3.92;;;22.00;62.20;;;;;;6085719;28;88500;-68
2023/03/12 06:39:53;;;;;;;4.55;3.60;;;22.00;62.20;;;;;;6095465;28;90404;-68
2023/03/12 06:42:55;;;;;;;4.57;3.60;;;22.00;62.20;;;;;;6097654;28;89094;-68
2023/03/12 06:46:00;;;;;;;4.30;3.90;;;22.00;62.30;;;;;;6083421;28;90075;-69
2023/03/12 06:49:02;;;;;;;4.45;3.78;;;22.00;62.20;;;;;;6094857;28;88300;-68
2023/03/12 06:52:05;;;;;;;4.68;3.95;;;22.00;62.20;;;;;;6087786;28;89185;-68
2023/03/12 06:55:08;;;;;;;4.60;3.97;;;22.00;62.20;;;;;;6084967;28;87980;-68
2023/03/12 06:58:10;;;;;;;4.68;4.10;;;22.00;62.20;;;;;;6084432;28;89082;-69
2023/03/12 07:01:13;;;;;;;8.40;4.90;;;22.10;62.20;;;;;;6084151;28;89068;-69
2023/03/12 07:04:15;;;;;;;4.85;4.22;;;22.10;62.80;;;;;;6074629;28;88382;-69
2023/03/12 07:07:18;;;;;;;5.00;4.15;;;22.10;63.70;;;;;;6086582;28;88430;-68
2023/03/12 07:10:21;;;;;;;5.72;4.25;;;22.10;63.70;;;;;;6099256;28;88863;-69
2023/03/12 07:13:23;;;;;;;4.90;4.25;;;22.10;63.40;;;;;;6085443;28;88011;-69
2023/03/12 07:16:27;;;;;;;5.53;3.80;;;22.10;63.50;;;;;;6089669;28;90365;-68
2023/03/12 07:19:29;;;;;;;4.90;4.07;;;22.10;63.40;;;;;;6080818;28;88149;-69
2023/03/12 07:22:32;;;;;;;5.07;4.28;;;22.20;63.30;;;;;;6091140;28;88638;-69
2023/03/12 07:25:36;;;;;;;6.47;4.72;;;22.20;63.20;;;;;;6096895;28;89285;-69
2023/03/12 07:28:38;;;;;;;5.20;4.07;;;22.20;63.20;;;;;;6099908;28;89081;-69
2023/03/12 07:31:41;;;;;;;4.35;3.95;;;22.20;63.20;;;;;;6082196;28;87981;-68
2023/03/12 07:34:43;;;;;;;4.72;4.20;;;22.20;63.30;;;;;;6090175;28;89494;-68
2023/03/12 07:37:45;;;;;;;4.05;3.63;;;22.30;63.50;;;;;;6073492;28;87207;-68
2023/03/12 07:40:51;;;;;;;5.10;3.70;;;22.30;63.60;;;;;;6076112;28;89123;-68
2023/03/12 07:43:53;;;;;;;6.03;3.92;;;22.30;63.50;;;;;;6093164;28;89592;-69
2023/03/12 07:46:56;;;;;;;6.32;4.18;;;22.40;63.50;;;;;;6086074;28;89096;-69
2023/03/12 07:49:59;;;;;;;4.35;3.95;;;22.30;63.30;;;;;;6091954;28;88997;-69
2023/03/12 07:53:01;;;;;;;4.88;4.38;;;22.40;63.20;;;;;;6104048;28;87991;-69
2023/03/12 07:56:03;;;;;;;7.25;4.38;;;22.40;63.10;;;;;;6087180;28;89043;-69
2023/03/12 07:59:05;;;;;;;4.53;3.90;;;22.40;63.80;;;;;;6098791;28;89256;-69
2023/03/12 08:02:10;;;;;;;6.53;3.70;;;22.40;62.80;;;;;;6085765;28;89101;-68
2023/03/12 08:05:12;;;;;;;4.93;4.22;;;22.40;62.80;;;;;;6085966;28;89474;-69
2023/03/12 08:08:16;;;;;;;4.72;4.30;;;22.50;62.80;;;;;;6086536;28;88277;-69
2023/03/12 08:11:18;;;;;;;5.93;4.22;;;22.50;62.80;;;;;;6076833;28;89156;-68
2023/03/12 08:14:20;;;;;;;5.25;3.70;;;22.40;62.70;;;;;;6087174;28;89100;-68
2023/03/12 08:17:23;;;;;;;5.60;3.90;;;22.40;62.70;;;;;;6086461;28;89996;-68
2023/03/12 08:20:25;;;;;;;4.70;3.83;;;22.40;62.60;;;;;;6086408;28;88601;-69
2023/03/12 08:23:28;;;;;;;4.60;4.05;;;22.50;63.50;;;;;;6086591;28;89410;-68
2023/03/12 08:26:30;;;;;;;4.05;3.60;;;22.40;62.50;;;;;;6085069;28;88488;-69
2023/03/12 08:29:32;;;;;;;4.93;4.10;;;22.50;62.50;;;;;;6085609;28;89175;-68
2023/03/12 08:32:35;;;;;;;5.45;4.05;;;22.50;62.50;;;;;;6074679;28;89143;-69
2023/03/12 08:35:37;;;;;;;4.15;3.60;;;22.40;62.40;;;;;;6086618;28;89064;-69
2023/03/12 08:38:39;;;;;;;5.25;4.07;;;22.50;62.50;;;;;;6078827;28;88707;-69
2023/03/12 08:41:42;;;;;;;4.50;3.50;;;22.50;62.40;;;;;;6098519;28;88028;-69
2023/03/12 08:44:44;;;;;;;4.40;3.65;;;22.50;62.40;;;;;;6100069;28;89037;-69
2023/03/12 08:47:47;;;;;;;4.20;3.70;;;22.50;62.40;;;;;;6084917;28;90076;-69
2023/03/12 08:50:49;;;;;;;5.28;3.95;;;22.50;62.40;;;;;;6086444;28;89426;-69
2023/03/12 08:53:51;;;;;;;4.32;3.85;;;22.50;62.40;;;;;;6080259;28;89070;-68
2023/03/12 08:56:53;;;;;;;3.83;3.47;;;22.50;62.30;;;;;;6070284;28;89063;-69
2023/03/12 08:59:56;;;;;;;4.45;3.58;;;22.50;62.40;;;;;;6096389;28;88014;-69
2023/03/12 09:02:59;;;;;;;4.00;3.60;;;22.50;62.30;;;;;;6085120;28;89440;-69
2023/03/12 09:06:06;;;;;;;4.03;3.53;;;22.60;62.50;;;;;;6083886;28;88353;-69
2023/03/12 09:09:08;;;;;;;4.43;3.60;;;22.50;62.30;;;;;;6086222;28;88263;-68
2023/03/12 09:12:10;;;;;;;3.88;3.47;;;22.50;62.40;;;;;;6085195;28;89132;-69
2023/03/12 09:15:12;;;;;;;4.07;3.50;;;22.60;62.50;;;;;;6085666;28;88274;-69
2023/03/12 09:18:16;;;;;;;3.70;3.40;;;22.60;62.50;;;;;;6086930;28;90348;-69
2023/03/12 09:21:18;;;;;;;4.03;3.50;;;22.60;62.50;;;;;;6094393;28;89389;-69
2023/03/12 09:24:20;;;;;;;3.92;3.53;;;22.60;62.50;;;;;;6086664;28;89188;-69
2023/03/12 09:27:22;;;;;;;3.60;3.30;;;22.60;62.50;;;;;;6098819;28;89096;-69
2023/03/12 09:30:25;;;;;;;3.83;3.35;;;22.60;62.50;;;;;;6084987;28;89017;-68
2023/03/12 09:33:29;;;;;;;4.13;3.40;;;22.60;62.50;;;;;;6085233;28;89062;-69
2023/03/12 09:36:31;;;;;;;3.90;3.28;;;22.60;62.50;;;;;;6082914;28;89251;-69
2023/03/12 09:39:33;;;;;;;3.55;3.25;;;22.60;62.40;;;;;;6084371;28;88444;-69
2023/03/12 09:42:41;;;;;;;3.72;3.25;;;22.60;62.40;;;;;;6084093;28;89078;-68
2023/03/12 09:45:45;;;;;;;3.55;3.22;;;22.60;62.30;;;;;;6078381;28;88018;-69
2023/03/12 09:48:52;;;;;;;3.42;3.13;;;22.60;62.30;;;;;;6084334;28;89975;-69
2023/03/12 09:51:57;;;;;;;3.38;3.08;;;22.50;62.30;;;;;;6084988;28;89056;-69
2023/03/12 09:55:05;;;;;;;3.50;3.20;;;22.60;62.30;;;;;;6083187;28;89220;-69
2023/03/12 09:58:14;;;;;;;3.97;3.58;;;22.50;62.30;;;;;;6090329;28;89010;-69
2023/03/12 10:01:44;;;;;;;6.03;3.50;;;22.50;62.40;;;;;;6082715;28;89419;-69
2023/03/12 10:04:52;;;;;;;5.53;3.55;;;22.50;62.70;;;;;;6075812;28;89413;-69
2023/03/12 10:08:00;;;;;;;5.55;3.80;;;22.50;63.00;;;;;;6088487;28;89403;-69
2023/03/12 10:11:14;;;;;;;6.00;3.58;;;22.50;63.20;;;;;;6085569;28;88392;-70
2023/03/12 10:14:28;;;;;;;4.47;3.22;;;22.50;63.70;;;;;;6084362;28;89188;-70
2023/03/12 10:17:50;;;;;;;5.85;3.63;;;22.50;63.60;;;;;;6093990;28;87944;-68
2023/03/12 10:21:14;;;;;;;6.50;3.70;;;22.60;64.00;;;;;;6084172;28;89416;-66
2023/03/12 10:24:30;;;;;;;7.40;3.67;;;22.50;64.40;;;;;;6064106;28;89236;-69
2023/03/12 10:27:35;;;;;;;5.80;3.95;;;22.60;65.20;;;;;;6075358;28;89387;-69
2023/03/12 10:30:41;;;;;;;6.65;3.70;;;22.60;64.50;;;;;;6089289;28;89099;-68
2023/03/12 10:33:47;;;;;;;8.50;4.00;;;22.60;64.20;;;;;;6080753;28;90030;-68
2023/03/12 10:36:51;;;;;;;5.75;3.80;;;22.60;64.10;;;;;;6073768;28;89161;-69
2023/03/12 10:39:55;;;;;;;6.85;4.10;;;22.60;64.50;;;;;;6070230;28;89324;-69
2023/03/12 10:42:57;;;;;;;558.88;165.85;;;22.60;65.80;;;;;;6072011;28;88362;-68
2023/03/12 10:46:07;;;;;;;501.87;180.43;;;22.60;67.00;;;;;;6076005;28;89142;-69
2023/03/12 10:49:30;;;;;;;109.72;39.17;;;22.60;69.40;;;;;;6087795;28;89133;-69
2023/03/12 10:52:34;;;;;;;80.75;29.55;;;22.70;66.50;;;;;;6078021;28;88831;-70
2023/03/12 10:55:36;;;;;;;67.90;23.55;;;22.80;65.50;;;;;;6080321;28;89380;-69
2023/03/12 10:58:39;;;;;;;58.17;21.42;;;22.90;65.10;;;;;;6085628;28;89147;-69
2023/03/12 11:01:49;;;;;;;50.00;17.73;;;23.00;64.50;;;;;;6078360;28;88094;-68
2023/03/12 11:04:52;;;;;;;46.88;17.40;;;23.00;64.20;;;;;;6079427;28;89105;-69
2023/03/12 11:07:58;;;;;;;39.33;16.17;;;23.00;64.00;;;;;;6092037;28;89105;-69
2023/03/12 11:11:02;;;;;;;35.30;14.80;;;22.90;64.00;;;;;;6085785;28;89282;-69
2023/03/12 11:14:07;;;;;;;44.28;15.90;;;22.90;64.10;;;;;;6084930;28;88495;-69
2023/03/12 11:17:20;;;;;;;39.83;15.15;;;22.80;64.10;;;;;;6081459;28;89175;-69
2023/03/12 11:20:27;;;;;;;34.17;14.60;;;22.80;64.20;;;;;;6074625;28;89343;-69
2023/03/12 11:23:32;;;;;;;38.05;13.45;;;22.80;64.20;;;;;;6084107;28;89990;-68
2023/03/12 11:26:39;;;;;;;29.90;12.93;;;22.80;64.20;;;;;;6083040;28;89412;-68
2023/03/12 11:29:47;;;;;;;31.05;12.90;;;22.80;64.20;;;;;;6083909;28;88992;-68
2023/03/12 11:32:50;;;;;;;26.00;12.13;;;22.80;64.10;;;;;;6092733;28;89826;-69
2023/03/12 11:36:07;;;;;;;31.13;12.55;;;22.70;64.00;;;;;;6086936;28;89248;-68
2023/03/12 11:39:20;;;;;;;30.75;12.70;;;22.80;64.00;;;;;;6070642;28;88816;-69
2023/03/12 11:42:35;;;;;;;27.60;13.50;;;22.70;63.90;;;;;;6082101;28;89309;-68
2023/03/12 11:45:47;;;;;;;29.10;13.25;;;22.70;64.00;;;;;;6098822;28;88681;-69
2023/03/12 11:49:04;;;;;;;25.70;13.00;;;22.70;64.00;;;;;;6090539;28;89575;-68
2023/03/12 11:52:14;;;;;;;25.02;13.13;;;22.70;64.10;;;;;;6086812;28;89250;-69
2023/03/12 11:55:30;;;;;;;26.38;12.85;;;22.80;64.20;;;;;;6092453;28;90301;-68
2023/03/12 11:58:47;;;;;;;23.48;12.73;;;22.70;64.10;;;;;;6080081;28;89265;-69
2023/03/12 12:02:00;;;;;;;25.98;13.48;;;22.70;64.20;;;;;;6079108;28;89187;-68
2023/03/12 12:05:31;;;;;;;26.88;13.35;;;22.70;64.20;;;;;;6072733;28;89170;-68
2023/03/12 12:08:47;;;;;;;29.02;13.93;;;22.70;64.20;;;;;;6080622;28;89025;-69
2023/03/12 12:12:04;;;;;;;26.35;13.95;;;22.70;64.40;;;;;;6075420;28;89246;-68
2023/03/12 12:15:19;;;;;;;26.48;13.23;;;22.70;64.40;;;;;;6082833;28;89119;-68
2023/03/12 12:18:42;;;;;;;21.00;12.77;;;22.70;64.40;;;;;;6084112;28;90317;-69
2023/03/12 12:22:03;;;;;;;24.00;14.07;;;22.80;64.40;;;;;;6080997;28;89075;-69
2023/03/12 12:25:25;;;;;;;21.83;13.05;;;22.70;64.30;;;;;;6076869;28;89260;-68
2023/03/12 12:28:53;;;;;;;20.20;12.15;;;22.70;64.40;;;;;;6085992;28;90392;-69
2023/03/12 12:31:56;;;;;;;23.65;13.18;;;22.70;64.40;;;;;;6075795;28;89368;-69
2023/03/12 12:35:14;;;;;;;22.77;12.55;;;22.70;64.40;;;;;;6083291;28;88007;-68
2023/03/12 12:38:28;;;;;;;21.10;12.65;;;22.70;64.40;;;;;;6082150;28;89125;-68
2023/03/12 12:41:35;;;;;;;20.33;12.50;;;22.70;64.40;;;;;;6082576;28;87992;-68
2023/03/12 12:44:43;;;;;;;21.17;12.88;;;22.60;64.50;;;;;;6085607;28;87991;-68
2023/03/12 12:47:50;;;;;;;22.23;12.73;;;22.70;64.60;;;;;;6075319;28;90005;-68
2023/03/12 12:50:58;;;;;;;19.27;12.10;;;22.70;64.60;;;;;;6092986;28;88509;-68
2023/03/12 12:54:05;;;;;;;17.63;12.40;;;22.70;64.60;;;;;;6082072;28;88000;-68
2023/03/12 12:57:14;;;;;;;17.23;12.20;;;22.70;64.60;;;;;;6082146;28;89697;-69
2023/03/12 13:00:29;;;;;;;15.98;12.07;;;22.70;64.60;;;;;;6078081;28;90049;-68
2023/03/12 13:03:32;;;;;;;17.17;11.80;;;22.70;64.70;;;;;;6070111;28;89469;-68
2023/03/12 13:06:56;;;;;;;15.95;12.05;;;22.70;64.60;;;;;;6081869;28;89125;-68
2023/03/12 13:09:59;;;;;;;118.85;42.13;;;22.70;64.60;;;;;;6062737;28;89167;-68
2023/03/12 13:13:09;;;;;;;1999.90;693.22;;;22.70;66.40;;;;;;6089176;28;89136;-67
2023/03/12 13:16:27;;;;;;;926.67;316.50;;;22.80;70.70;;;;;;6084637;28;89215;-67
2023/03/12 13:19:30;;;;;;;575.30;169.85;;;22.80;68.90;;;;;;6062929;28;89445;-68
2023/03/12 13:23:02;;;;;;;455.60;129.20;;;22.90;66.70;;;;;;6081973;28;88414;-67
2023/03/12 13:26:08;;;;;;;331.00;99.68;;;22.90;65.00;;;;;;6041276;28;89402;-68
2023/03/12 13:29:22;;;;;;;259.70;81.03;;;23.00;64.20;;;;;;6080666;28;88641;-67
2023/03/12 13:33:06;;;;;;;227.30;70.10;;;23.00;63.80;;;;;;6080784;28;90717;-67
2023/03/12 13:36:23;;;;;;;195.10;60.65;;;23.00;63.70;;;;;;6081978;28;90385;-67
2023/03/12 13:39:30;;;;;;;176.65;56.42;;;23.00;63.60;;;;;;6086189;28;88041;-68
2023/03/12 13:42:41;;;;;;;147.82;50.88;;;23.00;63.50;;;;;;6084319;28;89067;-67
2023/03/12 13:46:00;;;;;;;150.88;53.90;;;22.90;64.20;;;;;;6084085;28;87983;-68
2023/03/12 13:49:11;;;;;;;136.85;47.03;;;22.90;63.30;;;;;;6073763;28;87881;-67
2023/03/12 13:52:22;;;;;;;136.18;47.80;;;22.90;63.30;;;;;;6081453;28;89050;-68
2023/03/12 13:55:27;;;;;;;117.68;41.22;;;22.80;63.20;;;;;;6088980;28;87292;-68
2023/03/12 13:58:30;;;;;;;114.05;42.78;;;22.80;63.30;;;;;;6079993;28;88679;-67
2023/03/12 14:01:37;;;;;;;103.55;40.05;;;22.80;63.20;;;;;;6086398;28;88547;-67
2023/03/12 14:04:43;;;;;;;94.95;37.60;;;22.80;63.20;;;;;;6073881;28;90373;-67
2023/03/12 14:07:55;;;;;;;89.40;35.45;;;22.70;63.10;;;;;;6090898;28;88094;-67
2023/03/12 14:11:16;;;;;;;88.63;33.63;;;22.70;63.00;;;;;;6079236;28;87585;-67
2023/03/12 14:14:44;;;;;;;81.03;32.45;;;22.70;62.80;;;;;;6084104;28;89071;-66
2023/03/12 14:17:46;;;;;;;77.40;31.90;;;22.70;62.80;;;;;;6070541;28;89189;-67
2023/03/12 14:20:55;;;;;;;77.90;30.08;;;22.70;62.70;;;;;;6088548;28;89012;-68
2023/03/12 14:23:59;;;;;;;81.78;33.10;;;22.70;63.80;;;;;;6079011;28;88836;-68
2023/03/12 14:27:02;;;;;;;77.63;29.90;;;22.70;63.10;;;;;;6078273;28;88618;-69
2023/03/12 14:30:13;;;;;;;68.07;29.05;;;22.70;63.30;;;;;;6085239;28;89069;-68
2023/03/12 14:37:01;;;;;;;59.05;25.75;;;22.60;63.20;;;;;;6077175;28;88201;-68
2023/03/12 14:40:14;;;;;;;57.85;24.65;;;22.60;63.00;;;;;;6077482;28;88252;-68
2023/03/12 14:43:22;;;;;;;57.42;24.10;;;22.60;62.90;;;;;;6079827;28;89070;-68
2023/03/12 14:46:25;;;;;;;52.33;23.63;;;22.60;62.80;;;;;;6090580;28;87613;-68
2023/03/12 14:49:29;;;;;;;51.33;22.90;;;22.60;62.80;;;;;;6085880;28;88036;-68
2023/03/12 14:52:33;;;;;;;50.42;22.77;;;22.60;62.90;;;;;;6078831;28;89428;-68
2023/03/12 14:55:36;;;;;;;44.95;21.58;;;22.60;62.80;;;;;;6083715;28;89321;-68
2023/03/12 14:58:46;;;;;;;47.20;20.77;;;22.60;62.90;;;;;;6086451;28;87426;-69
2023/03/12 15:01:49;;;;;;;47.47;21.48;;;22.60;63.00;;;;;;6078136;28;89475;-68
2023/03/12 15:04:55;;;;;;;45.45;20.95;;;22.60;63.20;;;;;;6086513;28;89034;-69
2023/03/12 15:08:03;;;;;;;41.75;19.00;;;22.60;63.30;;;;;;6101029;28;89174;-69
2023/03/12 15:11:06;;;;;;;42.53;19.50;;;22.50;63.20;;;;;;6084628;28;89172;-68
2023/03/12 15:14:13;;;;;;;41.85;20.95;;;22.50;63.00;;;;;;6078145;28;89022;-68
2023/03/12 15:17:18;;;;;;;36.40;18.00;;;22.50;63.00;;;;;;6082339;28;89135;-68
2023/03/12 15:20:23;;;;;;;40.15;19.17;;;22.50;63.00;;;;;;6078634;28;89894;-69
2023/03/12 15:23:30;;;;;;;38.20;18.67;;;22.50;62.90;;;;;;6074713;28;89129;-68
2023/03/12 15:26:36;;;;;;;33.50;18.02;;;22.50;63.00;;;;;;6079600;28;89429;-68
2023/03/12 15:29:42;;;;;;;33.75;17.25;;;22.50;62.90;;;;;;6083204;28;87235;-68
2023/03/12 15:33:07;;;;;;;32.17;17.30;;;22.50;63.00;;;;;;6083213;28;88873;-69
2023/03/12 15:36:25;;;;;;;35.00;18.05;;;22.50;63.10;;;;;;6076433;28;89342;-70
2023/03/12 15:39:31;;;;;;;32.72;18.08;;;22.50;63.40;;;;;;6081995;28;90635;-68
2023/03/12 15:42:39;;;;;;;31.63;16.02;;;22.50;63.50;;;;;;6079743;28;89088;-70
2023/03/12 15:45:48;;;;;;;31.40;16.75;;;22.50;63.20;;;;;;6079439;28;89155;-69
2023/03/12 15:48:52;;;;;;;32.83;17.25;;;22.50;63.30;;;;;;6077132;28;89196;-68
2023/03/12 15:52:02;;;;;;;31.05;17.88;;;22.50;63.50;;;;;;6083718;28;88337;-68
2023/03/12 15:55:23;;;;;;;31.13;17.98;;;22.50;63.50;;;;;;6070406;28;89002;-69
2023/03/12 15:58:30;;;;;;;35.25;18.45;;;22.50;63.60;;;;;;6084260;28;88249;-67
2023/03/12 16:01:46;;;;;;;35.35;19.42;;;22.50;63.90;;;;;;6075145;28;88667;-69